Time;durP1;ratioP1;P1;durP2;ratioP2;P2;SDS_P1;SDS_P2;PMS_P1;PMS_P2;Temp;Humidity;BMP_temperature;BMP_pressure;BME280_temperature;BME280_humidity;BME280_pressure;Samples;Min_cycle;Max_cycle;Signal;HPM_P1;HPM_P2
2022/06/09 00:01:44;;;;;;;21.17;15.27;;;15.70;90.80;;;;;;5037920;28;20176;-87
2022/06/09 00:04:17;;;;;;;17.63;14.95;;;15.70;90.90;;;;;;5055687;28;20196;-87
2022/06/09 00:06:47;;;;;;;22.17;15.77;;;15.70;91.00;;;;;;5037776;28;20290;-87
2022/06/09 00:09:16;;;;;;;20.15;15.05;;;15.70;91.10;;;;;;5055679;28;20160;-87
2022/06/09 00:11:46;;;;;;;18.27;15.73;;;15.70;91.10;;;;;;5038141;28;20179;-87
2022/06/09 00:14:11;;;;;;;26.08;16.27;;;15.70;91.10;;;;;;5037305;28;20207;-87
2022/06/09 00:16:37;;;;;;;21.50;15.32;;;15.80;91.20;;;;;;5037748;28;20172;-87
2022/06/09 00:19:05;;;;;;;17.50;14.60;;;15.80;91.10;;;;;;5037914;28;20184;-86
2022/06/09 00:21:34;;;;;;;19.50;16.85;;;15.70;91.10;;;;;;5037637;28;20190;-86
2022/06/09 00:23:59;;;;;;;21.10;14.90;;;15.70;91.10;;;;;;5037461;28;20254;-86
2022/06/09 00:26:25;;;;;;;19.02;15.25;;;15.70;91.20;;;;;;5037549;28;20200;-87
2022/06/09 00:28:50;;;;;;;21.85;16.50;;;15.80;91.20;;;;;;5037480;28;20179;-87
2022/06/09 00:31:17;;;;;;;23.00;15.50;;;15.80;91.20;;;;;;5055532;28;20521;-87
2022/06/09 00:33:42;;;;;;;22.63;15.75;;;15.80;91.20;;;;;;5037435;28;20192;-87
2022/06/09 00:36:08;;;;;;;19.85;13.95;;;15.80;91.20;;;;;;5037739;28;20201;-87
2022/06/09 00:38:33;;;;;;;23.92;14.05;;;15.80;91.10;;;;;;5037290;28;20218;-87
2022/06/09 00:41:02;;;;;;;18.75;12.30;;;15.80;91.20;;;;;;5037271;28;20254;-86
2022/06/09 00:43:27;;;;;;;17.13;12.18;;;15.80;91.20;;;;;;5037004;28;20239;-86
2022/06/09 00:46:23;;;;;;;16.48;12.30;;;15.70;91.20;;;;;;5054977;28;20673;-87
2022/06/09 00:48:50;;;;;;;13.48;10.68;;;15.70;91.30;;;;;;5054329;28;20255;-86
2022/06/09 00:51:29;;;;;;;18.73;11.05;;;15.80;91.30;;;;;;5054888;28;20175;-87
2022/06/09 00:54:01;;;;;;;11.43;10.23;;;15.70;91.20;;;;;;5054847;28;20187;-87
2022/06/09 00:56:27;;;;;;;13.60;10.45;;;15.70;91.20;;;;;;5055171;28;20622;-87
2022/06/09 00:58:55;;;;;;;12.90;10.18;;;15.70;91.20;;;;;;5036938;28;20212;-87
2022/06/09 01:01:21;;;;;;;13.73;10.13;;;15.70;91.30;;;;;;5036862;28;20186;-87
2022/06/09 01:03:52;;;;;;;13.82;10.27;;;15.70;91.40;;;;;;5036813;28;20242;-87
2022/06/09 01:06:23;;;;;;;15.25;9.93;;;15.70;91.50;;;;;;5036691;28;20199;-87
2022/06/09 01:09:12;;;;;;;10.73;9.55;;;15.70;91.40;;;;;;5054786;28;20162;-87
2022/06/09 01:11:39;;;;;;;12.73;10.93;;;15.60;91.40;;;;;;5036700;28;20164;-87
2022/06/09 01:14:06;;;;;;;19.80;11.70;;;15.50;91.70;;;;;;5036415;28;20235;-87
2022/06/09 01:16:59;;;;;;;15.68;10.48;;;15.60;91.90;;;;;;5054387;28;20164;-87
2022/06/09 01:19:28;;;;;;;11.68;10.48;;;15.60;91.80;;;;;;5036502;28;20630;-87
2022/06/09 01:22:03;;;;;;;12.00;10.77;;;15.50;91.90;;;;;;5054227;28;20607;-87
2022/06/09 01:24:47;;;;;;;17.73;10.32;;;15.60;92.00;;;;;;5054334;28;20258;-87
2022/06/09 01:27:37;;;;;;;13.75;9.98;;;15.50;91.90;;;;;;5035549;28;20192;-87
2022/06/09 01:30:14;;;;;;;15.80;9.70;;;15.50;92.00;;;;;;5036269;28;20203;-87
2022/06/09 01:32:51;;;;;;;13.88;9.75;;;15.50;92.00;;;;;;5036240;28;20282;-87
2022/06/09 01:36:00;;;;;;;12.23;8.55;;;15.50;92.10;;;;;;5036354;28;20171;-87
2022/06/09 01:38:26;;;;;;;10.02;7.82;;;15.40;92.00;;;;;;5026736;28;20187;-87
2022/06/09 01:40:51;;;;;;;9.57;7.18;;;15.30;92.10;;;;;;5053951;28;20540;-86
2022/06/09 01:43:17;;;;;;;9.07;6.93;;;15.30;92.00;;;;;;5036026;28;20188;-87
2022/06/09 01:45:54;;;;;;;11.13;7.00;;;15.30;92.00;;;;;;5035931;28;20672;-87
2022/06/09 01:48:24;;;;;;;13.35;6.55;;;15.30;92.00;;;;;;5036054;28;20176;-87
2022/06/09 01:51:12;;;;;;;9.23;5.65;;;15.20;91.90;;;;;;5053769;28;20182;-87
2022/06/09 01:53:46;;;;;;;9.52;5.57;;;15.30;91.80;;;;;;5035857;28;20247;-87
2022/06/09 01:56:22;;;;;;;8.77;5.18;;;15.20;91.80;;;;;;5035986;28;20168;-87
2022/06/09 01:58:52;;;;;;;12.30;5.68;;;15.30;91.90;;;;;;5053674;28;20166;-87
2022/06/09 02:01:21;;;;;;;7.50;5.47;;;15.30;91.90;;;;;;5036039;28;20712;-87
2022/06/09 02:03:50;;;;;;;12.52;5.88;;;15.30;91.80;;;;;;5053467;28;20227;-87
2022/06/09 02:06:16;;;;;;;11.10;5.43;;;15.30;91.70;;;;;;5053581;28;20200;-87
2022/06/09 02:08:42;;;;;;;9.07;5.50;;;15.30;91.80;;;;;;5036086;28;20172;-87
2022/06/09 02:11:11;;;;;;;6.65;5.50;;;15.30;91.70;;;;;;5035729;28;20204;-87
2022/06/09 02:13:40;;;;;;;9.43;5.25;;;15.30;91.70;;;;;;5053280;28;20195;-86
2022/06/09 02:16:08;;;;;;;7.70;5.65;;;15.30;91.60;;;;;;5035505;28;20214;-87
2022/06/09 02:18:40;;;;;;;8.02;5.50;;;15.20;91.60;;;;;;5035675;28;20245;-87
2022/06/09 02:21:12;;;;;;;11.18;5.85;;;15.30;91.70;;;;;;5035988;28;20314;-87
2022/06/09 02:23:38;;;;;;;10.80;6.15;;;15.20;91.70;;;;;;5035521;28;20698;-87
2022/06/09 02:26:05;;;;;;;6.80;5.40;;;15.20;91.80;;;;;;5053121;28;20286;-87
2022/06/09 02:28:31;;;;;;;9.73;5.47;;;15.20;91.80;;;;;;5035248;28;20176;-87
2022/06/09 02:30:57;;;;;;;5.95;5.35;;;15.20;91.80;;;;;;5035419;28;20176;-87
2022/06/09 02:33:23;;;;;;;10.13;5.88;;;15.20;91.90;;;;;;5035361;28;20198;-87
2022/06/09 02:35:50;;;;;;;9.60;5.80;;;15.20;91.80;;;;;;5053158;28;20180;-87
2022/06/09 02:38:16;;;;;;;10.15;6.05;;;15.20;91.90;;;;;;5053186;28;20180;-87
2022/06/09 02:40:42;;;;;;;8.13;5.55;;;15.20;91.90;;;;;;5035347;28;20533;-87
2022/06/09 02:43:07;;;;;;;11.68;6.30;;;15.20;91.90;;;;;;5035379;28;20250;-87
2022/06/09 02:45:33;;;;;;;15.23;7.18;;;15.10;91.90;;;;;;5053035;28;20202;-87
2022/06/09 02:47:59;;;;;;;11.25;7.40;;;15.10;92.00;;;;;;5035878;28;20206;-87
2022/06/09 02:50:25;;;;;;;11.73;8.13;;;15.10;92.10;;;;;;5035550;28;20176;-87
2022/06/09 02:52:51;;;;;;;12.98;7.47;;;15.00;92.20;;;;;;5035009;28;20206;-87
2022/06/09 02:55:17;;;;;;;11.52;7.43;;;15.00;92.30;;;;;;5035383;28;20183;-87
2022/06/09 02:57:44;;;;;;;12.30;7.63;;;15.00;92.40;;;;;;5035289;28;20180;-88
2022/06/09 03:00:14;;;;;;;8.75;7.07;;;14.90;92.50;;;;;;5035301;28;20176;-87
2022/06/09 03:02:41;;;;;;;11.73;7.82;;;14.90;92.60;;;;;;5035112;28;20556;-87
2022/06/09 03:05:07;;;;;;;10.00;7.70;;;14.80;92.70;;;;;;5035402;28;20180;-88
2022/06/09 03:07:32;;;;;;;13.75;8.05;;;14.80;92.80;;;;;;5035195;28;20278;-87
2022/06/09 03:09:58;;;;;;;10.95;8.43;;;14.80;92.80;;;;;;5053039;28;20643;-87
2022/06/09 03:12:23;;;;;;;11.37;8.60;;;14.80;92.90;;;;;;5052803;28;20566;-87
2022/06/09 03:14:49;;;;;;;13.63;8.53;;;14.80;92.90;;;;;;5052761;28;20267;-87
2022/06/09 03:17:15;;;;;;;13.33;9.10;;;14.80;92.90;;;;;;5035225;28;20704;-87
2022/06/09 03:19:40;;;;;;;10.43;8.43;;;14.80;92.90;;;;;;5052820;28;20206;-87
2022/06/09 03:22:07;;;;;;;13.27;9.27;;;14.80;92.80;;;;;;5034895;28;20234;-87
2022/06/09 03:24:32;;;;;;;13.50;9.20;;;14.80;92.70;;;;;;5034987;28;20180;-87
2022/06/09 03:26:58;;;;;;;14.32;9.65;;;14.80;92.80;;;;;;5034890;28;20207;-87
2022/06/09 03:29:24;;;;;;;11.73;9.47;;;14.80;92.80;;;;;;5034968;28;20179;-87
2022/06/09 03:31:50;;;;;;;14.73;10.63;;;14.80;92.90;;;;;;5035005;28;20168;-87
2022/06/09 03:34:18;;;;;;;13.02;10.23;;;14.80;93.00;;;;;;5034901;28;20179;-87
2022/06/09 03:36:44;;;;;;;15.20;11.27;;;14.80;93.10;;;;;;5034956;28;20262;-87
2022/06/09 03:39:11;;;;;;;12.85;10.73;;;14.80;93.20;;;;;;5035276;28;20180;-87
2022/06/09 03:41:37;;;;;;;15.90;12.80;;;14.80;93.40;;;;;;5035000;28;20642;-87
2022/06/09 03:44:04;;;;;;;17.30;12.77;;;14.70;93.50;;;;;;5034645;28;20207;-87
2022/06/09 03:46:30;;;;;;;15.90;13.73;;;14.70;93.70;;;;;;5034833;28;20196;-87
2022/06/09 03:48:55;;;;;;;20.30;13.73;;;14.70;93.80;;;;;;5035278;28;20562;-87
2022/06/09 03:51:21;;;;;;;18.17;13.47;;;14.70;93.90;;;;;;5038106;28;20666;-87
2022/06/09 03:53:47;;;;;;;16.57;13.27;;;14.70;94.00;;;;;;5038377;28;20192;-88
2022/06/09 03:56:17;;;;;;;19.43;14.60;;;14.70;94.00;;;;;;5038515;28;20673;-88
2022/06/09 03:58:44;;;;;;;18.47;14.83;;;14.70;94.10;;;;;;5038280;28;20186;-87
2022/06/09 04:01:13;;;;;;;21.07;16.43;;;14.80;94.20;;;;;;5038307;28;20186;-87
2022/06/09 04:03:40;;;;;;;22.53;15.70;;;14.80;94.20;;;;;;5056311;28;20199;-88
2022/06/09 04:06:05;;;;;;;24.97;17.87;;;14.70;94.30;;;;;;5039090;28;20286;-88
2022/06/09 04:08:33;;;;;;;19.03;17.07;;;14.70;94.40;;;;;;5056972;28;20234;-87
2022/06/09 04:10:59;;;;;;;24.57;19.33;;;14.70;94.60;;;;;;5056781;28;20187;-87
2022/06/09 04:13:24;;;;;;;26.63;21.30;;;14.70;94.70;;;;;;5038253;28;20669;-87
2022/06/09 04:15:50;;;;;;;27.23;19.90;;;14.70;94.80;;;;;;5038057;28;20199;-87
2022/06/09 04:18:15;;;;;;;33.43;21.80;;;14.70;94.90;;;;;;5056101;28;20168;-87
2022/06/09 04:20:41;;;;;;;27.67;21.90;;;14.70;95.10;;;;;;5038127;28;20263;-87
2022/06/09 04:23:06;;;;;;;28.47;21.53;;;14.70;95.20;;;;;;5038344;28;20195;-87
2022/06/09 04:25:32;;;;;;;33.97;24.87;;;14.70;95.30;;;;;;5038640;28;20264;-88
2022/06/09 04:27:57;;;;;;;32.50;25.10;;;14.80;95.40;;;;;;5056244;28;20173;-88
2022/06/09 04:30:23;;;;;;;34.60;22.33;;;14.70;95.30;;;;;;5038358;28;20649;-88
2022/06/09 04:32:49;;;;;;;36.57;24.73;;;14.70;95.40;;;;;;5037962;28;20235;-87
2022/06/09 04:35:15;;;;;;;33.57;23.83;;;14.70;95.40;;;;;;5038364;28;20168;-87
2022/06/09 04:40:27;;;;;;;35.63;23.53;;;14.70;95.40;;;;;;5055775;28;20175;-88
2022/06/09 04:42:53;;;;;;;32.53;24.10;;;14.70;95.30;;;;;;5037375;28;20257;-87
2022/06/09 04:45:19;;;;;;;33.63;24.17;;;14.70;95.40;;;;;;5037606;28;20179;-88
2022/06/09 04:47:45;;;;;;;28.83;24.10;;;14.80;95.30;;;;;;5056023;28;20666;-88
2022/06/09 04:50:12;;;;;;;27.87;21.83;;;14.80;95.20;;;;;;5038047;28;20172;-88
2022/06/09 04:52:38;;;;;;;27.40;22.73;;;14.90;95.20;;;;;;5055156;28;20560;-88
2022/06/09 04:55:06;;;;;;;25.77;20.77;;;14.90;95.10;;;;;;5037537;28;20176;-88
2022/06/09 04:57:31;;;;;;;25.70;19.83;;;15.00;95.00;;;;;;5037566;28;20176;-88
2022/06/09 04:59:57;;;;;;;21.50;18.63;;;15.00;94.90;;;;;;5037960;28;20186;-88
2022/06/09 05:02:22;;;;;;;22.67;20.07;;;15.10;94.80;;;;;;5036144;28;20200;-87
2022/06/09 05:04:48;;;;;;;24.37;20.03;;;15.10;94.70;;;;;;5055338;28;20176;-88
2022/06/09 05:07:14;;;;;;;23.07;20.20;;;15.10;94.60;;;;;;5037197;28;20198;-87
2022/06/09 05:09:39;;;;;;;22.97;19.10;;;15.10;94.40;;;;;;5054927;28;20180;-88
2022/06/09 05:12:05;;;;;;;23.23;17.77;;;15.20;94.40;;;;;;5036783;28;20176;-87
2022/06/09 05:14:30;;;;;;;18.80;17.03;;;15.20;94.30;;;;;;5036885;28;20291;-88
2022/06/09 05:16:56;;;;;;;20.67;16.70;;;15.10;94.20;;;;;;5036998;28;20187;-88
2022/06/09 05:19:21;;;;;;;21.17;15.97;;;15.10;94.10;;;;;;5037178;28;20176;-88
2022/06/09 05:21:47;;;;;;;19.40;17.50;;;15.10;93.90;;;;;;5036960;28;20219;-88
2022/06/09 05:24:13;;;;;;;18.00;16.20;;;15.10;93.80;;;;;;5036903;28;20583;-88
2022/06/09 05:26:39;;;;;;;19.80;16.40;;;15.10;93.70;;;;;;5054532;28;20196;-87
2022/06/09 05:29:20;;;;;;;17.50;15.57;;;15.20;93.70;;;;;;5036875;28;20707;-87
2022/06/09 05:31:45;;;;;;;16.53;14.83;;;15.10;93.50;;;;;;5036629;28;20171;-87
2022/06/09 05:34:11;;;;;;;17.97;14.77;;;15.10;93.30;;;;;;5054682;28;20709;-87
2022/06/09 05:36:37;;;;;;;17.90;15.40;;;15.10;93.30;;;;;;5036620;28;20179;-88
2022/06/09 05:47:20;;;;;;;18.40;16.50;;;15.30;93.30;;;;;;5054107;28;20192;-88
2022/06/09 05:49:47;;;;;;;17.53;15.77;;;15.30;93.20;;;;;;5054121;28;20152;-87
2022/06/09 05:52:19;;;;;;;17.45;15.60;;;15.30;93.00;;;;;;5053992;28;20180;-87
2022/06/09 05:54:45;;;;;;;18.98;17.17;;;15.40;93.00;;;;;;5036911;28;20172;-88
2022/06/09 05:57:11;;;;;;;19.58;17.58;;;15.30;92.70;;;;;;5036207;28;20226;-88
2022/06/09 05:59:37;;;;;;;20.95;15.63;;;15.50;92.80;;;;;;5036850;28;20606;-89
2022/06/09 06:02:04;;;;;;;16.23;14.07;;;15.50;92.70;;;;;;5053967;28;20176;-89
2022/06/09 06:04:30;;;;;;;18.20;16.30;;;15.40;92.20;;;;;;5036193;28;20176;-89
2022/06/09 06:06:55;;;;;;;17.05;15.40;;;15.40;92.20;;;;;;5054115;28;20199;-89
2022/06/09 06:09:21;;;;;;;17.15;15.45;;;15.40;92.00;;;;;;5053998;28;20199;-88
2022/06/09 06:11:47;;;;;;;16.67;14.98;;;15.50;92.10;;;;;;5035832;28;20549;-89
2022/06/09 06:14:14;;;;;;;16.85;15.05;;;15.40;92.10;;;;;;5035670;28;20215;-89
2022/06/09 06:16:40;;;;;;;17.15;15.35;;;15.30;92.20;;;;;;5036970;28;20263;-89
2022/06/09 06:19:08;;;;;;;16.98;15.18;;;15.30;92.00;;;;;;5035741;28;20219;-88
2022/06/09 06:21:35;;;;;;;16.27;14.53;;;15.40;92.10;;;;;;5037064;28;20593;-89
2022/06/09 06:24:00;;;;;;;16.73;15.13;;;15.30;91.70;;;;;;5053669;28;20199;-89
2022/06/09 06:26:26;;;;;;;15.48;13.30;;;15.30;91.90;;;;;;5035774;28;20195;-87
2022/06/09 06:28:52;;;;;;;16.13;14.63;;;15.40;92.10;;;;;;5053448;28;20172;-86
2022/06/09 06:31:18;;;;;;;15.88;14.38;;;15.30;91.90;;;;;;5035334;28;20180;-86
2022/06/09 06:33:43;;;;;;;16.67;15.07;;;15.30;91.90;;;;;;5035093;28;20302;-86
2022/06/09 06:36:09;;;;;;;19.10;16.97;;;15.40;92.00;;;;;;5035551;28;20234;-89
2022/06/09 06:38:37;;;;;;;17.48;15.70;;;15.50;92.10;;;;;;5053525;28;20521;-89
2022/06/09 06:41:05;;;;;;;16.95;15.20;;;15.60;91.90;;;;;;5035586;28;20199;-88
2022/06/09 06:43:31;;;;;;;15.93;14.52;;;15.50;91.70;;;;;;5053391;28;20199;-90
2022/06/09 06:45:56;;;;;;;15.85;14.35;;;15.50;91.70;;;;;;5035588;28;20199;-89
2022/06/09 06:48:22;;;;;;;12.25;11.00;;;15.60;91.40;;;;;;5035798;28;20226;-88
2022/06/09 06:50:47;;;;;;;12.95;11.82;;;15.50;91.20;;;;;;5035314;28;20560;-88
2022/06/09 06:53:13;;;;;;;11.80;10.63;;;15.40;91.10;;;;;;5035182;28;20188;-88
2022/06/09 06:55:40;;;;;;;12.57;11.48;;;15.50;91.20;;;;;;5035368;28;20203;-88
2022/06/09 06:58:06;;;;;;;11.55;10.45;;;15.50;91.00;;;;;;5053043;28;20274;-88
2022/06/09 07:00:31;;;;;;;13.80;12.52;;;15.60;91.20;;;;;;5035178;28;20309;-88
2022/06/09 07:02:57;;;;;;;11.98;10.88;;;15.70;91.50;;;;;;5035186;28;20204;-88
2022/06/09 07:05:23;;;;;;;12.05;9.95;;;15.70;90.90;;;;;;5035061;28;20183;-88
2022/06/09 07:07:49;;;;;;;9.65;7.88;;;15.80;90.90;;;;;;5035029;28;20200;-88
2022/06/09 07:10:15;;;;;;;9.88;7.68;;;15.70;89.90;;;;;;5035104;28;20203;-88
2022/06/09 07:12:41;;;;;;;9.05;8.15;;;15.90;90.30;;;;;;5035584;28;20206;-88
2022/06/09 07:15:08;;;;;;;8.35;7.63;;;16.00;90.00;;;;;;5052846;28;20237;-89
2022/06/09 07:17:34;;;;;;;11.13;7.53;;;16.20;89.90;;;;;;5035664;28;20198;-88
2022/06/09 07:20:00;;;;;;;7.05;6.45;;;16.10;89.30;;;;;;5035053;28;20215;-88
2022/06/09 07:22:25;;;;;;;8.13;5.97;;;16.20;89.40;;;;;;5052916;28;20211;-88
2022/06/09 07:24:55;;;;;;;5.55;5.10;;;16.30;88.90;;;;;;5054165;28;20654;-87
2022/06/09 07:27:21;;;;;;;4.68;4.28;;;16.30;88.70;;;;;;5039377;28;20253;-88
2022/06/09 07:29:47;;;;;;;6.78;4.25;;;16.50;88.40;;;;;;5056577;28;20165;-87
2022/06/09 07:32:12;;;;;;;4.25;3.95;;;16.50;87.00;;;;;;5038687;28;20695;-88
2022/06/09 07:34:38;;;;;;;3.83;3.50;;;16.40;87.00;;;;;;5038613;28;20205;-87
2022/06/09 07:37:05;;;;;;;4.47;3.45;;;16.30;86.50;;;;;;5038619;28;20180;-88
2022/06/09 07:39:30;;;;;;;3.53;3.25;;;16.50;87.30;;;;;;5038402;28;20179;-87
2022/06/09 07:41:56;;;;;;;2.95;2.72;;;16.60;87.00;;;;;;5038375;28;20604;-87
2022/06/09 07:44:22;;;;;;;3.97;2.67;;;16.70;87.20;;;;;;5056339;28;20198;-88
2022/06/09 07:46:47;;;;;;;2.65;2.20;;;16.70;86.30;;;;;;5038189;28;20673;-87
2022/06/09 07:49:13;;;;;;;2.60;2.40;;;16.70;86.70;;;;;;5038251;28;20179;-87
2022/06/09 07:51:39;;;;;;;2.50;2.30;;;16.80;86.30;;;;;;5038123;28;20179;-88
2022/06/09 07:54:05;;;;;;;2.60;2.40;;;16.70;85.30;;;;;;5038264;28;20672;-88
2022/06/09 07:56:32;;;;;;;4.60;2.83;;;16.60;85.40;;;;;;5038698;28;20204;-87
2022/06/09 07:58:58;;;;;;;3.33;3.03;;;16.50;86.10;;;;;;5056330;28;20175;-87
2022/06/09 08:01:24;;;;;;;5.38;3.80;;;16.50;86.10;;;;;;5055935;28;20186;-88
2022/06/09 08:03:49;;;;;;;5.10;4.38;;;16.70;86.10;;;;;;5055870;28;20192;-88
2022/06/09 08:06:16;;;;;;;5.97;4.32;;;16.60;85.70;;;;;;5055677;28;20700;-87
2022/06/09 08:08:41;;;;;;;5.82;4.57;;;16.70;85.80;;;;;;5037987;28;20668;-87
2022/06/09 08:11:08;;;;;;;5.78;5.15;;;16.70;87.00;;;;;;5038107;28;20168;-87
2022/06/09 08:13:35;;;;;;;7.82;5.63;;;16.70;86.40;;;;;;5055882;28;20563;-86
2022/06/09 08:16:02;;;;;;;4.70;4.30;;;16.80;87.10;;;;;;5037959;28;20242;-87
2022/06/09 08:18:28;;;;;;;5.63;5.07;;;16.90;86.90;;;;;;5037852;28;20202;-87
2022/06/09 08:20:54;;;;;;;4.88;4.38;;;17.10;87.10;;;;;;5038040;28;20189;-88
2022/06/09 08:23:23;;;;;;;9.88;5.03;;;17.20;85.80;;;;;;5037815;28;20196;-88
2022/06/09 08:25:51;;;;;;;5.88;5.38;;;17.20;85.80;;;;;;5037789;28;20283;-88
2022/06/09 08:28:18;;;;;;;9.73;7.95;;;17.00;85.50;;;;;;5055626;28;20247;-87
2022/06/09 08:30:45;;;;;;;12.73;11.13;;;16.80;86.20;;;;;;5038051;28;20534;-87
2022/06/09 08:33:10;;;;;;;15.07;13.45;;;16.60;87.80;;;;;;5037675;28;20260;-88
2022/06/09 08:35:36;;;;;;;16.83;15.10;;;16.30;88.70;;;;;;5037519;28;20713;-87
2022/06/09 08:38:03;;;;;;;17.80;15.95;;;16.20;89.90;;;;;;5038229;28;20183;-88
2022/06/09 08:40:49;;;;;;;22.60;15.55;;;16.20;90.40;;;;;;5037746;28;20262;-87
2022/06/09 08:43:23;;;;;;;20.67;16.63;;;16.30;90.30;;;;;;5037584;28;20192;-88
2022/06/09 08:45:54;;;;;;;19.27;15.35;;;16.30;90.40;;;;;;5055314;28;20202;-88
2022/06/09 08:48:26;;;;;;;20.05;15.90;;;16.50;90.40;;;;;;5038026;28;20164;-88
2022/06/09 08:50:57;;;;;;;17.58;14.50;;;16.60;90.10;;;;;;5055126;28;20176;-86
2022/06/09 08:53:31;;;;;;;17.10;14.38;;;16.80;88.70;;;;;;5037221;28;20688;-85
2022/06/09 08:56:15;;;;;;;18.10;13.93;;;17.00;88.90;;;;;;5054821;28;20161;-85
2022/06/09 08:58:58;;;;;;;14.38;12.80;;;17.20;88.90;;;;;;5036901;28;20171;-86
2022/06/09 09:01:45;;;;;;;13.50;12.00;;;17.30;87.60;;;;;;5054907;28;20156;-88
2022/06/09 09:04:15;;;;;;;13.73;11.32;;;17.50;87.90;;;;;;5038081;28;20286;-86
2022/06/09 09:06:48;;;;;;;11.20;10.02;;;17.50;86.10;;;;;;5036719;28;20598;-86
2022/06/09 09:09:23;;;;;;;13.07;11.18;;;17.20;85.60;;;;;;5036683;28;20172;-86
2022/06/09 09:12:12;;;;;;;13.30;8.63;;;17.20;86.20;;;;;;5054486;28;20160;-86
2022/06/09 09:14:46;;;;;;;10.98;9.27;;;17.20;86.40;;;;;;5054605;28;20211;-85
2022/06/09 09:17:22;;;;;;;9.60;8.57;;;17.30;85.70;;;;;;5054469;28;20151;-86
2022/06/09 09:19:57;;;;;;;8.23;7.30;;;17.40;85.50;;;;;;5036587;28;20237;-87
2022/06/09 09:22:38;;;;;;;7.82;7.03;;;17.70;85.90;;;;;;5054457;28;20191;-87
2022/06/09 09:25:15;;;;;;;8.75;7.22;;;17.60;84.20;;;;;;5036701;28;20215;-88
2022/06/09 09:27:52;;;;;;;13.60;9.45;;;17.20;84.90;;;;;;5054584;28;20192;-88
2022/06/09 09:30:21;;;;;;;13.93;8.65;;;17.10;85.10;;;;;;5036267;28;20254;-86
2022/06/09 09:32:50;;;;;;;15.77;10.52;;;17.00;86.10;;;;;;5054022;28;20595;-87
2022/06/09 09:35:23;;;;;;;12.52;10.23;;;16.90;85.60;;;;;;5036260;28;20172;-87
2022/06/09 09:37:53;;;;;;;12.85;9.23;;;16.90;86.20;;;;;;5036464;28;20641;-88
2022/06/09 09:40:29;;;;;;;10.70;9.40;;;17.10;86.40;;;;;;5036550;28;20214;-88
2022/06/09 09:42:59;;;;;;;11.48;9.55;;;17.00;85.90;;;;;;5036032;28;20233;-87
2022/06/09 09:45:37;;;;;;;14.38;10.50;;;17.00;86.00;;;;;;5053866;28;20215;-87
2022/06/09 09:48:31;;;;;;;12.52;9.95;;;17.00;86.30;;;;;;5035235;28;20685;-88
2022/06/09 09:51:13;;;;;;;12.57;10.23;;;16.90;85.80;;;;;;5053799;28;20176;-87
2022/06/09 09:53:47;;;;;;;14.23;10.70;;;16.90;86.60;;;;;;5036019;28;20219;-87
2022/06/09 09:56:18;;;;;;;11.00;8.95;;;16.70;85.60;;;;;;5054006;28;20171;-88
2022/06/09 09:58:47;;;;;;;11.73;10.52;;;16.80;85.40;;;;;;5036831;28;20604;-89
2022/06/09 10:01:22;;;;;;;12.05;10.85;;;17.00;85.20;;;;;;5036628;28;20176;-89
2022/06/09 10:09:38;;;;;;;7.43;6.65;;;17.70;83.10;;;;;;5053831;28;20167;-89
2022/06/09 10:12:11;;;;;;;7.15;6.55;;;17.80;81.60;;;;;;5053893;28;20176;-87
2022/06/09 10:14:42;;;;;;;7.80;7.00;;;17.80;82.50;;;;;;5053288;28;20540;-87
2022/06/09 10:17:29;;;;;;;9.38;7.63;;;17.60;81.60;;;;;;5035567;28;20542;-88
2022/06/09 10:20:03;;;;;;;10.57;7.22;;;17.50;82.60;;;;;;5035571;28;20175;-88
2022/06/09 10:22:34;;;;;;;7.90;7.20;;;17.50;82.40;;;;;;5053357;28;20196;-87
2022/06/09 10:25:13;;;;;;;8.15;6.85;;;17.50;83.40;;;;;;5036105;28;20214;-88
2022/06/09 10:27:43;;;;;;;7.95;6.82;;;17.30;82.20;;;;;;5036545;28;20616;-88
2022/06/09 10:30:16;;;;;;;6.82;6.13;;;17.40;83.00;;;;;;5053964;28;20168;-90
2022/06/09 10:32:52;;;;;;;7.22;6.53;;;17.60;82.40;;;;;;5035908;28;20191;-86
2022/06/09 10:35:41;;;;;;;4.97;4.47;;;17.70;82.70;;;;;;5053462;28;20277;-89
2022/06/09 10:38:25;;;;;;;4.25;3.88;;;17.80;80.60;;;;;;5035444;28;20167;-88
2022/06/09 10:40:54;;;;;;;6.57;5.97;;;17.80;79.50;;;;;;5036327;28;20198;-88
2022/06/09 10:43:37;;;;;;;6.05;5.18;;;17.70;81.30;;;;;;5035541;28;20681;-89
2022/06/09 10:46:35;;;;;;;6.22;4.78;;;18.00;80.50;;;;;;5035387;28;20168;-88
2022/06/09 10:55:27;;;;;;;6.53;5.72;;;18.70;80.70;;;;;;5053344;28;20160;-90
2022/06/09 10:58:14;;;;;;;8.07;5.50;;;19.10;78.60;;;;;;5053493;28;20210;-91
2022/06/09 11:00:45;;;;;;;6.95;6.15;;;18.80;77.30;;;;;;5057571;28;20156;-89
2022/06/09 11:03:27;;;;;;;7.10;6.40;;;18.80;77.80;;;;;;5056933;28;20238;-90
2022/06/09 11:06:05;;;;;;;6.43;5.82;;;18.30;76.60;;;;;;5039373;28;20170;-90
2022/06/09 11:08:35;;;;;;;6.00;5.50;;;18.50;79.10;;;;;;5057302;28;20187;-90
2022/06/09 11:11:27;;;;;;;5.13;4.63;;;18.30;78.20;;;;;;5057241;28;20250;-91
2022/06/09 11:14:15;;;;;;;5.13;4.63;;;18.50;78.60;;;;;;5034560;28;20206;-91
2022/06/09 11:16:44;;;;;;;5.13;4.63;;;18.30;77.50;;;;;;5056893;28;20662;-90
2022/06/09 11:19:43;;;;;;;5.07;4.57;;;18.30;79.00;;;;;;5056941;28;20711;-91
2022/06/09 11:22:29;;;;;;;7.20;5.30;;;18.70;79.00;;;;;;5057097;28;20179;-91
2022/06/09 11:25:25;;;;;;;5.18;4.78;;;18.80;77.70;;;;;;5057091;28;20176;-91
2022/06/09 11:28:18;;;;;;;4.63;4.13;;;18.50;77.20;;;;;;5056877;28;20226;-91
2022/06/09 11:31:16;;;;;;;4.70;3.72;;;18.30;77.50;;;;;;5056800;28;20235;-91
2022/06/09 11:34:10;;;;;;;4.60;3.95;;;18.30;78.10;;;;;;5056885;28;20620;-91
2022/06/09 11:36:40;;;;;;;5.15;4.65;;;18.50;78.10;;;;;;5038564;28;20262;-92
2022/06/09 11:39:30;;;;;;;4.30;3.90;;;18.50;77.80;;;;;;5038581;28;20226;-92
2022/06/09 11:42:05;;;;;;;4.57;4.18;;;19.10;77.20;;;;;;5038927;28;20179;-92
2022/06/09 11:44:42;;;;;;;4.10;3.80;;;19.50;75.50;;;;;;5039208;28;20171;-92
2022/06/09 11:47:16;;;;;;;3.70;3.40;;;19.80;75.00;;;;;;5056659;28;20183;-91
2022/06/09 11:49:55;;;;;;;4.95;3.15;;;19.80;73.70;;;;;;5056465;28;20163;-90
2022/06/09 11:52:24;;;;;;;3.55;3.25;;;19.50;72.20;;;;;;5056414;28;20207;-91
2022/06/09 11:54:53;;;;;;;4.15;2.70;;;19.10;73.90;;;;;;5056329;28;20175;-91
2022/06/09 11:57:39;;;;;;;5.20;2.67;;;19.60;73.70;;;;;;5056148;28;20276;-91
2022/06/09 12:00:21;;;;;;;2.60;2.20;;;20.00;73.60;;;;;;5056148;28;20247;-91
2022/06/09 12:03:18;;;;;;;4.07;2.70;;;20.10;71.70;;;;;;5056298;28;20716;-91
2022/06/09 12:05:58;;;;;;;3.15;2.50;;;20.40;71.90;;;;;;5056253;28;20180;-91
2022/06/09 12:08:24;;;;;;;3.10;2.80;;;20.50;70.90;;;;;;5056314;28;20187;-91
2022/06/09 12:11:11;;;;;;;3.85;2.83;;;20.30;70.90;;;;;;5055536;28;20646;-91
2022/06/09 12:13:55;;;;;;;2.90;2.38;;;20.40;70.00;;;;;;5038140;28;20191;-91
2022/06/09 12:16:26;;;;;;;4.47;2.80;;;20.40;69.90;;;;;;5056276;28;20248;-91
2022/06/09 12:19:14;;;;;;;4.25;3.20;;;20.50;70.00;;;;;;5055973;28;20156;-91
2022/06/09 12:21:44;;;;;;;3.08;2.40;;;20.40;68.70;;;;;;5056534;28;20226;-91
2022/06/09 12:25:00;;;;;;;3.63;2.53;;;20.80;69.70;;;;;;5055776;28;20219;-91
2022/06/09 12:27:37;;;;;;;3.22;2.38;;;21.00;68.70;;;;;;4958845;28;20225;-91
2022/06/09 12:30:03;;;;;;;2.78;2.13;;;21.20;67.30;;;;;;5053805;28;20227;-91
2022/06/09 12:32:40;;;;;;;2.95;2.38;;;21.40;67.20;;;;;;5056072;28;20701;-91
2022/06/09 12:35:31;;;;;;;4.45;2.70;;;21.20;66.40;;;;;;5055529;28;20179;-90
2022/06/09 12:38:35;;;;;;;4.82;2.67;;;20.80;68.70;;;;;;5055619;28;20695;-91
2022/06/09 12:41:29;;;;;;;3.47;2.15;;;20.90;67.80;;;;;;5043255;28;20192;-91
2022/06/09 12:44:23;;;;;;;3.92;2.95;;;21.20;69.50;;;;;;5054801;28;20214;-91
2022/06/09 12:47:12;;;;;;;4.10;2.25;;;20.70;69.20;;;;;;5037929;28;20184;-91
2022/06/09 12:49:41;;;;;;;3.50;2.53;;;20.90;69.30;;;;;;5055274;28;20160;-91
2022/06/09 12:52:26;;;;;;;3.72;2.65;;;20.70;70.80;;;;;;5055350;28;20222;-91
2022/06/09 12:54:59;;;;;;;7.05;2.33;;;21.20;69.20;;;;;;5055272;28;20175;-91
2022/06/09 12:57:29;;;;;;;4.22;2.15;;;21.50;68.10;;;;;;5055147;28;20183;-91
2022/06/09 13:00:12;;;;;;;4.75;2.33;;;22.20;67.10;;;;;;5055227;28;20222;-91
2022/06/09 13:02:39;;;;;;;3.67;1.90;;;21.70;67.10;;;;;;5055115;28;20214;-91
2022/06/09 13:05:16;;;;;;;4.32;2.08;;;21.70;67.10;;;;;;5055378;28;20587;-91
2022/06/09 13:07:49;;;;;;;6.82;2.33;;;21.90;67.90;;;;;;5054813;28;20686;-90
2022/06/09 13:10:27;;;;;;;4.20;2.10;;;21.70;66.50;;;;;;5054956;28;20172;-91
2022/06/09 13:12:59;;;;;;;5.72;2.50;;;21.50;68.10;;;;;;5055037;28;20191;-90
2022/06/09 13:16:00;;;;;;;3.65;1.90;;;21.60;65.30;;;;;;5054441;28;20666;-89
2022/06/09 13:18:34;;;;;;;4.28;2.38;;;21.70;66.60;;;;;;5037091;28;20183;-90
2022/06/09 13:21:20;;;;;;;6.72;1.80;;;21.40;66.30;;;;;;5037362;28;20178;-90